createdAt,value
2023-03-20T00:00:18.725Z,6.40
2023-03-20T00:02:48.291Z,6.63
2023-03-20T00:05:22.672Z,7.43
2023-03-20T00:07:54.253Z,6.23
2023-03-20T00:10:23.669Z,6.53
2023-03-20T00:12:53.282Z,6.70
2023-03-20T00:15:30.941Z,7.40
2023-03-20T00:17:59.521Z,5.33
2023-03-20T00:20:28.473Z,5.87
2023-03-20T00:22:58.120Z,6.20
2023-03-20T00:25:27.157Z,6.10
2023-03-20T00:27:58.466Z,6.00
2023-03-20T00:30:31.063Z,5.60
2023-03-20T00:33:03.863Z,6.20
2023-03-20T00:35:33.275Z,5.63
2023-03-20T00:38:04.359Z,5.27
2023-03-20T00:40:33.267Z,5.40
2023-03-20T00:43:07.800Z,6.07
2023-03-20T00:45:37.020Z,6.13
2023-03-20T00:48:12.464Z,5.97
2023-03-20T00:50:41.023Z,6.00
2023-03-20T00:53:11.891Z,6.20
2023-03-20T00:55:42.820Z,7.37
2023-03-20T00:58:14.398Z,6.03
2023-03-20T01:00:47.537Z,6.13
2023-03-20T01:03:19.118Z,5.80
2023-03-20T01:05:49.635Z,5.80
2023-03-20T01:08:21.536Z,6.03
2023-03-20T01:10:54.999Z,6.90
2023-03-20T01:13:28.351Z,6.57
2023-03-20T01:15:58.715Z,6.43
2023-03-20T01:18:28.130Z,9.57
2023-03-20T01:20:56.795Z,6.47
2023-03-20T01:23:31.404Z,6.50
2023-03-20T01:26:00.857Z,6.17
2023-03-20T01:28:32.725Z,8.83
2023-03-20T01:31:01.179Z,6.00
2023-03-20T01:33:29.704Z,9.17
2023-03-20T01:35:59.783Z,6.53
2023-03-20T01:38:29.476Z,7.07
2023-03-20T01:41:00.922Z,7.27
2023-03-20T01:43:31.339Z,7.13
2023-03-20T01:46:04.489Z,7.30
2023-03-20T01:48:57.413Z,6.87
2023-03-20T01:51:26.986Z,6.70
2023-03-20T01:53:59.490Z,6.43
2023-03-20T01:56:33.219Z,6.33
2023-03-20T01:59:08.256Z,6.43
2023-03-20T02:01:40.265Z,6.47
2023-03-20T02:04:10.110Z,6.50
2023-03-20T02:06:40.424Z,6.53
2023-03-20T02:09:09.968Z,6.97
2023-03-20T02:11:39.198Z,6.43
2023-03-20T02:14:09.873Z,6.40
2023-03-20T02:16:38.731Z,6.67
2023-03-20T02:19:10.647Z,6.03
2023-03-20T02:22:11.633Z,6.27
2023-03-20T02:25:15.971Z,5.97
2023-03-20T02:28:03.852Z,6.70
2023-03-20T02:31:02.384Z,7.33
2023-03-20T02:34:17.776Z,7.77
2023-03-20T02:37:33.568Z,7.27
2023-03-20T02:40:23.485Z,7.80
2023-03-20T02:43:01.437Z,6.17
2023-03-20T02:45:32.666Z,6.80
2023-03-20T02:48:13.617Z,6.50
2023-03-20T02:50:51.398Z,7.27
2023-03-20T02:53:33.712Z,6.67
2023-03-20T02:56:09.815Z,7.57
2023-03-20T02:58:46.179Z,7.70
2023-03-20T03:01:21.380Z,9.10
2023-03-20T03:03:56.073Z,8.13
2023-03-20T03:06:30.385Z,8.67
2023-03-20T03:09:05.888Z,9.33
2023-03-20T03:11:40.103Z,10.40
2023-03-20T03:14:11.449Z,8.40
2023-03-20T03:16:44.946Z,10.30
2023-03-20T03:19:19.200Z,9.03
2023-03-20T03:21:49.735Z,10.30
2023-03-20T03:24:40.311Z,8.20
2023-03-20T03:27:17.563Z,9.43
2023-03-20T03:29:55.407Z,9.07
2023-03-20T03:32:30.865Z,8.87
2023-03-20T03:35:02.619Z,10.33
2023-03-20T03:37:43.508Z,9.90
2023-03-20T03:40:21.634Z,9.00
2023-03-20T03:42:59.536Z,9.83
2023-03-20T03:45:37.623Z,9.90
2023-03-20T03:48:12.142Z,11.77
2023-03-20T03:50:49.028Z,10.10
2023-03-20T03:53:22.770Z,10.37
2023-03-20T03:55:55.113Z,9.53
2023-03-20T03:58:30.966Z,10.27
2023-03-20T04:01:04.577Z,10.57
2023-03-20T04:03:40.543Z,12.10
2023-03-20T04:06:12.958Z,10.67
2023-03-20T04:08:42.692Z,12.10
2023-03-20T04:11:16.685Z,10.43
2023-03-20T04:13:49.012Z,11.60
2023-03-20T04:16:19.762Z,11.33
2023-03-20T04:18:51.952Z,10.93
2023-03-20T04:21:21.170Z,11.47
2023-03-20T04:23:49.240Z,12.57
2023-03-20T04:26:17.780Z,15.47
2023-03-20T04:28:47.813Z,13.40
2023-03-20T04:31:18.185Z,12.37
2023-03-20T04:33:51.259Z,13.97
2023-03-20T04:36:19.606Z,14.17
2023-03-20T04:38:48.147Z,13.53
2023-03-20T04:41:16.142Z,12.87
2023-03-20T04:43:44.505Z,14.97
2023-03-20T04:46:16.060Z,14.20
2023-03-20T04:48:45.255Z,14.47
2023-03-20T04:51:16.499Z,13.80
2023-03-20T04:53:44.396Z,13.73
2023-03-20T04:56:15.736Z,13.67
2023-03-20T04:58:43.932Z,13.40
2023-03-20T05:01:17.275Z,13.27
2023-03-20T05:03:46.566Z,12.63
2023-03-20T05:06:18.572Z,15.17
2023-03-20T05:08:50.243Z,13.40
2023-03-20T05:11:18.391Z,17.57
2023-03-20T05:13:46.572Z,14.43
2023-03-20T05:16:17.007Z,13.83
2023-03-20T05:18:45.607Z,16.90
2023-03-20T05:21:14.003Z,15.73
2023-03-20T05:23:42.378Z,16.50
2023-03-20T05:26:12.410Z,15.73
2023-03-20T05:28:41.217Z,16.07
2023-03-20T05:31:10.621Z,16.23
2023-03-20T05:33:40.444Z,16.73
2023-03-20T05:36:11.805Z,16.53
2023-03-20T05:38:41.219Z,16.47
2023-03-20T05:41:11.658Z,17.83
2023-03-20T05:43:40.192Z,16.70
2023-03-20T05:46:09.166Z,16.00
2023-03-20T05:48:40.727Z,19.30
2023-03-20T05:51:10.221Z,17.93
2023-03-20T05:53:38.190Z,19.33
2023-03-20T05:56:09.577Z,18.40
2023-03-20T05:58:38.407Z,18.80
2023-03-20T06:01:07.120Z,18.47
2023-03-20T06:03:36.750Z,17.70
2023-03-20T06:06:07.015Z,20.40
2023-03-20T06:08:37.997Z,21.13
2023-03-20T06:11:07.197Z,23.07
2023-03-20T06:13:36.975Z,22.27
2023-03-20T06:16:06.014Z,22.30
2023-03-20T06:18:34.635Z,24.37
2023-03-20T06:21:04.486Z,25.50
2023-03-20T06:23:36.314Z,24.83
2023-03-20T06:26:05.253Z,26.03
2023-03-20T06:28:34.744Z,25.20
2023-03-20T06:31:05.362Z,27.80
2023-03-20T06:33:33.723Z,28.43
2023-03-20T06:36:02.454Z,34.73
2023-03-20T06:38:30.681Z,28.80
2023-03-20T06:41:02.121Z,33.03
2023-03-20T06:43:33.760Z,27.83
2023-03-20T06:46:01.756Z,31.03
2023-03-20T06:48:30.168Z,29.63
2023-03-20T06:50:58.555Z,37.93
2023-03-20T06:53:28.115Z,33.43
2023-03-20T06:55:57.194Z,34.93
2023-03-20T06:58:27.123Z,33.77
2023-03-20T07:00:55.362Z,36.53
2023-03-20T07:03:25.389Z,32.97
2023-03-20T07:05:55.015Z,36.27
2023-03-20T07:08:23.302Z,35.90
2023-03-20T07:10:53.454Z,32.77
2023-03-20T07:13:25.413Z,33.07
2023-03-20T07:16:04.408Z,33.13
2023-03-20T07:18:33.768Z,36.23
2023-03-20T07:21:05.549Z,39.10
2023-03-20T07:23:36.620Z,40.67
2023-03-20T07:26:07.412Z,38.47
2023-03-20T07:28:36.464Z,37.97
2023-03-20T07:31:06.911Z,38.60
2023-03-20T07:33:35.635Z,35.33
2023-03-20T07:36:03.654Z,35.97
2023-03-20T07:38:36.771Z,34.80
2023-03-20T07:41:05.261Z,39.50
2023-03-20T07:43:33.794Z,33.00
2023-03-20T07:46:03.899Z,32.10
2023-03-20T07:48:33.926Z,34.60
2023-03-20T07:51:07.721Z,29.93
2023-03-20T07:53:36.021Z,30.87
2023-03-20T07:56:04.496Z,30.33
2023-03-20T07:58:35.365Z,28.07
2023-03-20T08:01:04.164Z,27.63
2023-03-20T08:03:34.869Z,30.53
2023-03-20T08:06:06.382Z,31.53
2023-03-20T08:08:39.236Z,30.50
2023-03-20T08:11:08.638Z,32.33
2023-03-20T08:13:37.992Z,31.60
2023-03-20T08:16:10.196Z,30.10
2023-03-20T08:18:44.671Z,33.03
2023-03-20T08:21:13.128Z,33.50
2023-03-20T08:23:42.840Z,36.53
2023-03-20T08:26:11.593Z,32.70
2023-03-20T08:28:47.438Z,31.87
2023-03-20T08:31:19.086Z,34.53
2023-03-20T08:33:49.942Z,30.27
2023-03-20T08:36:20.568Z,29.57
2023-03-20T08:38:49.787Z,33.10
2023-03-20T08:41:18.205Z,30.83
2023-03-20T08:43:47.795Z,33.20
2023-03-20T08:46:17.062Z,35.27
2023-03-20T08:48:45.583Z,34.77
2023-03-20T08:51:16.354Z,36.33
2023-03-20T08:53:44.650Z,36.63
2023-03-20T08:56:12.833Z,34.20
2023-03-20T08:58:42.010Z,36.57
2023-03-20T09:01:15.478Z,32.60
2023-03-20T09:03:44.597Z,38.00
2023-03-20T09:06:12.940Z,33.23
2023-03-20T09:08:45.181Z,42.40
2023-03-20T09:11:14.487Z,42.87
2023-03-20T09:13:44.022Z,39.00
2023-03-20T09:16:16.312Z,41.27
2023-03-20T09:18:45.535Z,39.20
2023-03-20T09:21:13.806Z,41.73
2023-03-20T09:23:48.862Z,42.00
2023-03-20T09:26:20.063Z,47.40
2023-03-20T09:28:53.692Z,63.10
2023-03-20T09:31:23.523Z,60.70
2023-03-20T09:33:51.643Z,47.07
2023-03-20T09:36:22.978Z,43.83
2023-03-20T09:38:55.442Z,41.97
2023-03-20T09:41:28.055Z,42.60
2023-03-20T09:44:09.273Z,40.53
2023-03-20T09:47:21.236Z,40.50
2023-03-20T09:50:01.694Z,40.60
2023-03-20T09:52:34.321Z,36.73
2023-03-20T09:55:09.355Z,39.60
2023-03-20T09:57:41.642Z,74.33
2023-03-20T10:00:16.618Z,38.50
2023-03-20T10:02:51.676Z,41.50
2023-03-20T10:05:26.665Z,37.73
2023-03-20T10:07:58.745Z,34.57
2023-03-20T10:10:39.518Z,36.30
2023-03-20T10:13:22.998Z,51.30
2023-03-20T10:16:01.689Z,39.73
2023-03-20T10:18:34.724Z,34.57
2023-03-20T10:21:16.509Z,33.60
2023-03-20T10:23:57.521Z,31.13
2023-03-20T10:26:29.318Z,32.70
2023-03-20T10:29:02.497Z,30.37
2023-03-20T10:31:41.635Z,30.13
2023-03-20T10:34:26.009Z,28.17
2023-03-20T10:37:11.734Z,27.63
2023-03-20T10:39:51.457Z,27.73
2023-03-20T10:42:27.119Z,26.90
2023-03-20T10:44:59.708Z,26.93
2023-03-20T10:47:35.320Z,44.73
2023-03-20T10:50:09.103Z,23.73
2023-03-20T10:52:47.666Z,24.13
2023-03-20T10:55:22.774Z,19.60
2023-03-20T10:57:59.097Z,19.97
2023-03-20T11:00:30.341Z,16.33
2023-03-20T11:02:58.662Z,16.23
2023-03-20T11:05:31.992Z,19.30
2023-03-20T11:08:07.580Z,18.40
2023-03-20T11:10:38.752Z,16.33
2023-03-20T11:13:23.820Z,22.53
2023-03-20T11:15:55.583Z,16.80
2023-03-20T11:18:26.682Z,12.87
2023-03-20T11:20:58.765Z,12.20
2023-03-20T11:23:34.368Z,14.90
2023-03-20T11:26:06.241Z,12.93
2023-03-20T11:28:40.765Z,13.63
2023-03-20T11:31:18.903Z,12.53
2023-03-20T11:33:54.040Z,14.03
2023-03-20T11:36:27.914Z,11.33
2023-03-20T11:39:04.018Z,12.37
2023-03-20T11:41:31.976Z,13.87
2023-03-20T11:44:02.505Z,12.93
2023-03-20T11:46:33.588Z,13.97
2023-03-20T11:49:22.248Z,11.97
2023-03-20T11:52:22.487Z,13.33
2023-03-20T11:55:00.974Z,11.73
2023-03-20T11:57:36.824Z,14.17
2023-03-20T12:00:27.319Z,12.40
2023-03-20T12:02:58.047Z,11.70
2023-03-20T12:05:36.657Z,13.47
2023-03-20T12:08:14.153Z,13.90
2023-03-20T12:10:44.944Z,14.37
2023-03-20T12:13:18.869Z,13.20
2023-03-20T12:15:53.757Z,12.83
2023-03-20T12:18:31.492Z,15.23
2023-03-20T12:21:10.122Z,14.03
2023-03-20T12:23:46.442Z,12.13
2023-03-20T12:26:21.316Z,9.40
2023-03-20T12:28:57.800Z,9.53
2023-03-20T12:31:40.229Z,11.57
2023-03-20T12:34:16.170Z,9.17
2023-03-20T12:36:48.562Z,9.17
2023-03-20T12:39:20.302Z,10.67
2023-03-20T12:42:13.266Z,11.03
2023-03-20T12:44:50.616Z,10.27
2023-03-20T12:48:17.178Z,16.40
2023-03-20T12:50:52.426Z,15.93
2023-03-20T12:53:43.678Z,13.80
2023-03-20T12:56:50.816Z,9.90
2023-03-20T12:59:27.806Z,12.83
2023-03-20T13:02:00.588Z,10.80
2023-03-20T13:05:00.370Z,10.17
2023-03-20T13:07:49.089Z,9.33
2023-03-20T13:10:23.000Z,8.13
2023-03-20T13:13:08.824Z,9.43
2023-03-20T13:15:56.646Z,9.83
2023-03-20T13:18:45.207Z,8.53
2023-03-20T13:21:26.398Z,10.30
2023-03-20T13:24:07.791Z,6.87
2023-03-20T13:26:45.747Z,9.93
2023-03-20T13:29:21.849Z,4.77
2023-03-20T13:32:01.113Z,6.57
2023-03-20T13:34:43.247Z,5.90
2023-03-20T13:37:25.884Z,4.80
2023-03-20T13:40:04.891Z,4.90
2023-03-20T13:42:43.125Z,7.93
2023-03-20T13:45:37.686Z,6.73
2023-03-20T13:48:29.684Z,9.00
2023-03-20T13:51:06.702Z,6.97
2023-03-20T13:53:51.196Z,4.27
2023-03-20T13:56:30.941Z,5.13
2023-03-20T13:59:12.202Z,4.77
2023-03-20T14:02:05.981Z,3.00
2023-03-20T14:04:37.340Z,6.33
2023-03-20T14:07:35.852Z,4.27
2023-03-20T14:10:48.522Z,4.53
2023-03-20T14:13:23.825Z,5.43
2023-03-20T14:15:59.217Z,4.00
2023-03-20T14:18:32.586Z,4.73
2023-03-20T14:21:04.579Z,4.30
2023-03-20T14:23:38.699Z,5.27
2023-03-20T14:26:19.160Z,4.83
2023-03-20T14:29:00.002Z,4.27
2023-03-20T14:31:35.640Z,3.13
2023-03-20T14:37:04.150Z,4.73
2023-03-20T14:39:44.601Z,4.90
2023-03-20T14:42:40.564Z,8.73
2023-03-20T14:45:28.753Z,4.27
2023-03-20T14:48:06.169Z,4.57
2023-03-20T14:50:51.386Z,2.60
2023-03-20T14:53:37.269Z,6.10
2023-03-20T14:56:30.068Z,5.03
2023-03-20T14:59:20.560Z,3.10
2023-03-20T15:37:25.873Z,4.63
2023-03-20T15:40:02.932Z,3.80
2023-03-20T15:42:41.632Z,4.57
2023-03-20T15:45:40.070Z,5.87
2023-03-20T15:48:17.562Z,7.13
2023-03-20T15:51:07.050Z,4.00
2023-03-20T15:53:55.428Z,5.43
2023-03-20T15:59:40.671Z,4.27
2023-03-20T16:02:21.801Z,4.20
2023-03-20T16:05:02.726Z,4.87
2023-03-20T16:10:40.413Z,3.40
2023-03-20T16:13:41.272Z,3.10
2023-03-20T16:16:30.483Z,2.83
2023-03-20T16:19:20.688Z,3.73
2023-03-20T16:21:58.525Z,2.67
2023-03-20T16:24:29.481Z,6.50
2023-03-20T16:27:10.191Z,3.70
2023-03-20T16:29:50.637Z,3.40
2023-03-20T16:32:26.928Z,6.30
2023-03-20T16:35:10.801Z,3.40
2023-03-20T20:04:29.927Z,4.77
2023-03-20T20:07:33.668Z,7.33
2023-03-20T20:09:56.580Z,5.07
2023-03-20T20:12:35.603Z,5.57
2023-03-20T20:15:10.878Z,6.67
2023-03-20T20:17:50.153Z,3.77
2023-03-20T20:20:25.124Z,10.60
2023-03-20T20:22:54.980Z,6.73
2023-03-20T20:25:27.682Z,5.83
2023-03-20T20:28:02.573Z,5.97
2023-03-20T20:30:31.234Z,5.33
2023-03-20T20:33:05.134Z,4.20
2023-03-20T20:36:01.259Z,4.43
2023-03-20T20:38:48.864Z,4.80
2023-03-20T20:41:19.190Z,6.20
2023-03-20T20:44:15.151Z,5.47
2023-03-20T20:46:38.997Z,10.00
2023-03-20T20:49:18.766Z,7.20
2023-03-20T20:52:06.664Z,4.07
2023-03-20T20:54:37.703Z,5.87
2023-03-20T20:57:06.319Z,3.57
2023-03-20T20:59:37.914Z,6.43
2023-03-20T21:02:11.499Z,5.13
2023-03-20T21:04:43.705Z,5.93
2023-03-20T21:07:17.331Z,5.07
2023-03-20T21:09:46.333Z,5.23
2023-03-20T21:12:32.366Z,8.40
2023-03-20T21:15:03.874Z,4.50
2023-03-20T21:17:33.060Z,5.93
2023-03-20T21:20:02.439Z,5.17
2023-03-20T21:22:42.986Z,4.93
2023-03-20T21:25:15.173Z,6.80
2023-03-20T21:27:45.127Z,6.13
2023-03-20T21:30:19.718Z,7.70
2023-03-20T21:33:03.523Z,6.50
2023-03-20T21:38:58.510Z,5.67
2023-03-20T21:41:17.116Z,5.87
2023-03-20T21:44:01.440Z,6.77
2023-03-20T21:59:30.115Z,4.93
2023-03-20T22:02:02.487Z,5.30
2023-03-20T22:07:50.736Z,5.13
2023-03-20T22:11:09.580Z,3.20
2023-03-20T22:14:02.533Z,4.00
2023-03-20T22:19:35.874Z,4.57
2023-03-20T22:22:13.758Z,5.83
2023-03-20T22:27:55.299Z,8.80
2023-03-20T22:39:36.625Z,3.63
2023-03-20T22:42:43.347Z,5.17
2023-03-20T22:47:53.711Z,8.87
2023-03-20T22:50:22.397Z,5.33
2023-03-20T22:52:56.552Z,5.60
2023-03-20T22:55:30.101Z,3.67
2023-03-20T22:58:07.336Z,7.17
2023-03-20T23:00:39.045Z,5.80
2023-03-20T23:03:22.369Z,5.03
2023-03-20T23:05:55.611Z,9.10
2023-03-20T23:08:24.831Z,6.80
2023-03-20T23:10:55.232Z,7.13
2023-03-20T23:13:25.944Z,5.23
2023-03-20T23:15:54.644Z,6.00
2023-03-20T23:18:24.891Z,7.67
2023-03-20T23:21:00.541Z,7.00
2023-03-20T23:23:31.661Z,4.83
2023-03-20T23:26:05.667Z,5.63
2023-03-20T23:28:34.159Z,7.90
2023-03-20T23:31:10.671Z,7.03
2023-03-20T23:33:41.015Z,6.70
2023-03-20T23:36:24.762Z,7.13
2023-03-20T23:38:59.913Z,4.13
2023-03-20T23:41:54.043Z,5.13
2023-03-20T23:44:19.462Z,7.63
2023-03-20T23:46:55.952Z,5.03
2023-03-20T23:49:27.918Z,7.47
2023-03-20T23:51:59.740Z,5.70
2023-03-20T23:54:30.513Z,5.17
2023-03-20T23:56:58.662Z,5.53
2023-03-20T23:59:27.782Z,5.50
